sensor_id;sensor_type;location;lat;lon;timestamp;pressure;altitude;pressure_sealevel;temperature;humidity
78121;BME280;67585;44.802;10.332;2023-07-29T00:00:22;100682.50;;;25.65;54.90
78121;BME280;67585;44.802;10.332;2023-07-29T00:02:47;100686.94;;;25.69;54.46
78121;BME280;67585;44.802;10.332;2023-07-29T00:05:13;100671.41;;;25.61;54.87
78121;BME280;67585;44.802;10.332;2023-07-29T00:07:38;100660.09;;;25.50;54.82
78121;BME280;67585;44.802;10.332;2023-07-29T00:10:04;100630.09;;;25.29;54.95
78121;BME280;67585;44.802;10.332;2023-07-29T00:12:30;100637.72;;;25.36;54.90
78121;BME280;67585;44.802;10.332;2023-07-29T00:14:55;100672.19;;;25.62;55.22
78121;BME280;67585;44.802;10.332;2023-07-29T00:17:20;100668.41;;;25.70;54.73
78121;BME280;67585;44.802;10.332;2023-07-29T00:19:46;100670.66;;;25.64;54.81
78121;BME280;67585;44.802;10.332;2023-07-29T00:22:12;100645.41;;;25.46;54.83
78121;BME280;67585;44.802;10.332;2023-07-29T00:24:39;100668.47;;;25.54;55.25
78121;BME280;67585;44.802;10.332;2023-07-29T00:27:05;100670.22;;;25.62;55.07
78121;BME280;67585;44.802;10.332;2023-07-29T00:29:30;100652.91;;;25.46;55.10
78121;BME280;67585;44.802;10.332;2023-07-29T00:31:56;100669.88;;;25.64;54.98
78121;BME280;67585;44.802;10.332;2023-07-29T00:34:21;100649.41;;;25.29;55.56
78121;BME280;67585;44.802;10.332;2023-07-29T00:36:47;100656.66;;;25.37;55.08
78121;BME280;67585;44.802;10.332;2023-07-29T00:39:13;100673.09;;;25.50;55.38
78121;BME280;67585;44.802;10.332;2023-07-29T00:41:38;100620.75;;;25.18;55.32
78121;BME280;67585;44.802;10.332;2023-07-29T00:44:04;100654.91;;;25.29;55.73
78121;BME280;67585;44.802;10.332;2023-07-29T00:46:29;100670.41;;;25.53;55.62
78121;BME280;67585;44.802;10.332;2023-07-29T00:48:56;100668.22;;;25.43;55.65
78121;BME280;67585;44.802;10.332;2023-07-29T00:51:21;100659.22;;;25.46;55.41
78121;BME280;67585;44.802;10.332;2023-07-29T00:53:47;100662.13;;;25.53;55.64
78121;BME280;67585;44.802;10.332;2023-07-29T00:56:12;100633.53;;;25.26;55.36
78121;BME280;67585;44.802;10.332;2023-07-29T00:58:38;100652.09;;;25.45;56.24
78121;BME280;67585;44.802;10.332;2023-07-29T01:01:03;100662.97;;;25.38;55.86
78121;BME280;67585;44.802;10.332;2023-07-29T01:03:29;100660.22;;;25.38;55.75
78121;BME280;67585;44.802;10.332;2023-07-29T01:08:59;100678.97;;;25.48;55.54
78121;BME280;67585;44.802;10.332;2023-07-29T01:11:38;100682.78;;;25.44;55.71
78121;BME280;67585;44.802;10.332;2023-07-29T01:14:16;100685.72;;;25.51;55.61
78121;BME280;67585;44.802;10.332;2023-07-29T01:16:48;100692.22;;;25.58;55.55
78121;BME280;67585;44.802;10.332;2023-07-29T01:20:09;100686.91;;;25.50;55.75
78121;BME280;67585;44.802;10.332;2023-07-29T01:22:16;100686.53;;;25.51;55.65
78121;BME280;67585;44.802;10.332;2023-07-29T01:24:42;100676.06;;;25.25;56.23
78121;BME280;67585;44.802;10.332;2023-07-29T01:27:07;100668.03;;;25.36;55.77
78121;BME280;67585;44.802;10.332;2023-07-29T01:29:33;100679.34;;;25.47;55.92
78121;BME280;67585;44.802;10.332;2023-07-29T01:32:07;100672.03;;;25.38;56.20
78121;BME280;67585;44.802;10.332;2023-07-29T01:34:53;100690.44;;;25.50;55.82
78121;BME280;67585;44.802;10.332;2023-07-29T01:37:26;100680.41;;;25.42;55.86
78121;BME280;67585;44.802;10.332;2023-07-29T01:39:55;100683.13;;;25.58;55.46
78121;BME280;67585;44.802;10.332;2023-07-29T01:42:23;100684.03;;;25.46;55.60
78121;BME280;67585;44.802;10.332;2023-07-29T01:44:48;100676.22;;;25.48;55.35
78121;BME280;67585;44.802;10.332;2023-07-29T01:47:14;100677.28;;;25.44;55.92
78121;BME280;67585;44.802;10.332;2023-07-29T01:49:39;100678.00;;;25.41;56.12
78121;BME280;67585;44.802;10.332;2023-07-29T01:52:05;100644.31;;;24.84;57.41
78121;BME280;67585;44.802;10.332;2023-07-29T01:54:30;100672.03;;;24.75;58.23
78121;BME280;67585;44.802;10.332;2023-07-29T01:56:56;100627.41;;;24.69;57.61
78121;BME280;67585;44.802;10.332;2023-07-29T01:59:22;100678.44;;;24.79;58.68
78121;BME280;67585;44.802;10.332;2023-07-29T02:01:48;100681.88;;;24.60;59.15
78121;BME280;67585;44.802;10.332;2023-07-29T02:04:14;100683.06;;;24.75;58.38
78121;BME280;67585;44.802;10.332;2023-07-29T02:06:39;100686.06;;;24.70;58.95
78121;BME280;67585;44.802;10.332;2023-07-29T02:09:05;100693.81;;;24.64;58.71
78121;BME280;67585;44.802;10.332;2023-07-29T02:11:30;100683.31;;;24.70;58.38
78121;BME280;67585;44.802;10.332;2023-07-29T02:13:56;100694.53;;;24.77;57.97
78121;BME280;67585;44.802;10.332;2023-07-29T02:16:22;100690.78;;;24.69;58.62
78121;BME280;67585;44.802;10.332;2023-07-29T02:18:48;100669.47;;;24.66;58.25
78121;BME280;67585;44.802;10.332;2023-07-29T02:21:15;100698.50;;;24.64;58.78
78121;BME280;67585;44.802;10.332;2023-07-29T02:23:40;100694.94;;;24.63;58.73
78121;BME280;67585;44.802;10.332;2023-07-29T02:26:06;100698.94;;;24.66;58.54
78121;BME280;67585;44.802;10.332;2023-07-29T02:28:31;100707.38;;;24.57;58.96
78121;BME280;67585;44.802;10.332;2023-07-29T02:31:32;100707.66;;;24.68;58.43
78121;BME280;67585;44.802;10.332;2023-07-29T02:34:00;100693.34;;;24.62;58.26
78121;BME280;67585;44.802;10.332;2023-07-29T02:36:25;100702.16;;;24.68;58.63
78121;BME280;67585;44.802;10.332;2023-07-29T02:38:51;100712.03;;;24.69;58.66
78121;BME280;67585;44.802;10.332;2023-07-29T02:41:16;100682.84;;;24.52;58.64
78121;BME280;67585;44.802;10.332;2023-07-29T02:43:48;100697.09;;;24.70;58.36
78121;BME280;67585;44.802;10.332;2023-07-29T02:46:13;100702.00;;;24.77;58.74
78121;BME280;67585;44.802;10.332;2023-07-29T02:48:39;100644.47;;;24.31;58.59
78121;BME280;67585;44.802;10.332;2023-07-29T02:51:04;100683.84;;;24.60;58.37
78121;BME280;67585;44.802;10.332;2023-07-29T02:53:29;100678.16;;;24.68;58.00
78121;BME280;67585;44.802;10.332;2023-07-29T02:55:55;100693.81;;;24.64;58.37
78121;BME280;67585;44.802;10.332;2023-07-29T02:58:20;100677.09;;;24.57;58.31
78121;BME280;67585;44.802;10.332;2023-07-29T03:00:46;100691.56;;;24.54;58.59
78121;BME280;67585;44.802;10.332;2023-07-29T03:03:13;100688.97;;;24.61;58.52
78121;BME280;67585;44.802;10.332;2023-07-29T03:05:39;100657.94;;;24.20;58.71
78121;BME280;67585;44.802;10.332;2023-07-29T03:08:04;100688.66;;;24.22;59.83
78121;BME280;67585;44.802;10.332;2023-07-29T03:10:30;100714.06;;;24.16;60.05
78121;BME280;67585;44.802;10.332;2023-07-29T03:12:55;100694.38;;;24.29;59.38
78121;BME280;67585;44.802;10.332;2023-07-29T03:15:24;100702.91;;;24.52;59.16
78121;BME280;67585;44.802;10.332;2023-07-29T03:17:52;100681.69;;;24.53;58.43
78121;BME280;67585;44.802;10.332;2023-07-29T03:20:19;100681.97;;;24.36;60.00
78121;BME280;67585;44.802;10.332;2023-07-29T03:22:44;100710.94;;;24.45;59.74
78121;BME280;67585;44.802;10.332;2023-07-29T03:25:10;100714.47;;;24.58;59.50
78121;BME280;67585;44.802;10.332;2023-07-29T03:27:35;100728.97;;;24.55;59.85
78121;BME280;67585;44.802;10.332;2023-07-29T03:30:05;100703.63;;;24.49;59.63
78121;BME280;67585;44.802;10.332;2023-07-29T03:32:31;100727.72;;;24.52;59.73
78121;BME280;67585;44.802;10.332;2023-07-29T03:34:56;100719.47;;;24.40;59.64
78121;BME280;67585;44.802;10.332;2023-07-29T03:37:22;100710.50;;;24.43;59.40
78121;BME280;67585;44.802;10.332;2023-07-29T03:39:47;100713.00;;;24.20;59.84
78121;BME280;67585;44.802;10.332;2023-07-29T03:42:13;100714.06;;;24.44;58.78
78121;BME280;67585;44.802;10.332;2023-07-29T03:44:38;100714.56;;;24.34;59.16
78121;BME280;67585;44.802;10.332;2023-07-29T03:47:06;100712.31;;;24.23;59.93
78121;BME280;67585;44.802;10.332;2023-07-29T03:49:33;100683.97;;;24.23;59.29
78121;BME280;67585;44.802;10.332;2023-07-29T03:51:58;100700.38;;;24.60;58.79
78121;BME280;67585;44.802;10.332;2023-07-29T03:54:24;100678.97;;;24.41;59.04
78121;BME280;67585;44.802;10.332;2023-07-29T03:56:49;100690.13;;;24.32;60.03
78121;BME280;67585;44.802;10.332;2023-07-29T03:59:14;100692.66;;;24.37;59.95
78121;BME280;67585;44.802;10.332;2023-07-29T04:01:40;100711.97;;;24.25;60.29
78121;BME280;67585;44.802;10.332;2023-07-29T04:04:05;100720.03;;;24.05;60.98
78121;BME280;67585;44.802;10.332;2023-07-29T04:06:31;100730.25;;;24.05;60.79
78121;BME280;67585;44.802;10.332;2023-07-29T04:08:57;100730.91;;;24.14;60.85
78121;BME280;67585;44.802;10.332;2023-07-29T04:11:23;100724.94;;;24.12;60.60
78121;BME280;67585;44.802;10.332;2023-07-29T04:13:49;100731.63;;;23.99;60.74
78121;BME280;67585;44.802;10.332;2023-07-29T04:16:14;100722.25;;;23.63;62.35
78121;BME280;67585;44.802;10.332;2023-07-29T04:18:39;100729.56;;;23.59;62.19
78121;BME280;67585;44.802;10.332;2023-07-29T04:21:05;100706.00;;;23.45;61.82
78121;BME280;67585;44.802;10.332;2023-07-29T04:23:30;100701.38;;;23.50;62.02
78121;BME280;67585;44.802;10.332;2023-07-29T04:25:56;100720.06;;;23.56;62.70
78121;BME280;67585;44.802;10.332;2023-07-29T04:28:21;100713.44;;;23.45;62.62
78121;BME280;67585;44.802;10.332;2023-07-29T04:30:46;100747.34;;;23.61;62.34
78121;BME280;67585;44.802;10.332;2023-07-29T04:35:56;100716.50;;;23.68;62.09
78121;BME280;67585;44.802;10.332;2023-07-29T04:38:22;100732.56;;;23.78;61.86
78121;BME280;67585;44.802;10.332;2023-07-29T04:40:49;100750.66;;;24.04;60.91
78121;BME280;67585;44.802;10.332;2023-07-29T04:43:15;100762.59;;;24.08;60.54
78121;BME280;67585;44.802;10.332;2023-07-29T04:45:43;100745.06;;;23.88;61.53
78121;BME280;67585;44.802;10.332;2023-07-29T04:48:09;100756.75;;;23.85;61.98
78121;BME280;67585;44.802;10.332;2023-07-29T04:50:34;100740.50;;;23.80;61.87
78121;BME280;67585;44.802;10.332;2023-07-29T04:53:00;100756.53;;;23.78;62.22
78121;BME280;67585;44.802;10.332;2023-07-29T04:55:26;100745.88;;;23.76;62.03
78121;BME280;67585;44.802;10.332;2023-07-29T04:57:51;100762.00;;;24.02;61.54
78121;BME280;67585;44.802;10.332;2023-07-29T05:00:17;100749.97;;;23.95;61.54
78121;BME280;67585;44.802;10.332;2023-07-29T05:02:43;100782.16;;;24.19;61.18
78121;BME280;67585;44.802;10.332;2023-07-29T05:05:08;100776.53;;;24.15;61.56
78121;BME280;67585;44.802;10.332;2023-07-29T05:07:33;100756.94;;;24.17;61.14
78121;BME280;67585;44.802;10.332;2023-07-29T05:09:59;100758.44;;;24.14;61.54
78121;BME280;67585;44.802;10.332;2023-07-29T05:12:24;100758.78;;;24.13;61.42
78121;BME280;67585;44.802;10.332;2023-07-29T05:14:50;100751.56;;;23.96;61.91
78121;BME280;67585;44.802;10.332;2023-07-29T05:17:15;100756.72;;;24.09;61.91
78121;BME280;67585;44.802;10.332;2023-07-29T05:19:41;100763.41;;;23.96;62.24
78121;BME280;67585;44.802;10.332;2023-07-29T05:22:06;100757.75;;;24.05;61.67
78121;BME280;67585;44.802;10.332;2023-07-29T05:24:31;100769.44;;;24.14;61.36
78121;BME280;67585;44.802;10.332;2023-07-29T05:26:57;100779.91;;;24.08;62.18
78121;BME280;67585;44.802;10.332;2023-07-29T05:29:22;100790.88;;;24.21;61.38
78121;BME280;67585;44.802;10.332;2023-07-29T05:31:48;100786.50;;;24.20;61.70
78121;BME280;67585;44.802;10.332;2023-07-29T05:34:13;100785.69;;;24.31;61.60
78121;BME280;67585;44.802;10.332;2023-07-29T05:36:39;100782.63;;;24.21;61.72
78121;BME280;67585;44.802;10.332;2023-07-29T05:39:04;100775.34;;;24.41;60.61
78121;BME280;67585;44.802;10.332;2023-07-29T05:41:30;100790.22;;;24.64;60.59
78121;BME280;67585;44.802;10.332;2023-07-29T05:43:55;100794.81;;;24.60;60.67
78121;BME280;67585;44.802;10.332;2023-07-29T05:46:21;100756.09;;;24.28;60.72
78121;BME280;67585;44.802;10.332;2023-07-29T05:48:46;100799.81;;;24.70;60.84
78121;BME280;67585;44.802;10.332;2023-07-29T05:51:12;100780.50;;;24.55;60.60
78121;BME280;67585;44.802;10.332;2023-07-29T05:53:37;100789.59;;;24.71;60.27
78121;BME280;67585;44.802;10.332;2023-07-29T05:56:03;100787.25;;;24.85;59.78
78121;BME280;67585;44.802;10.332;2023-07-29T05:58:32;100774.63;;;24.84;59.67
78121;BME280;67585;44.802;10.332;2023-07-29T06:00:57;100785.59;;;24.97;59.14
78121;BME280;67585;44.802;10.332;2023-07-29T06:03:23;100762.88;;;24.87;59.23
78121;BME280;67585;44.802;10.332;2023-07-29T06:05:49;100762.69;;;24.80;59.43
78121;BME280;67585;44.802;10.332;2023-07-29T06:08:15;100786.94;;;25.03;59.20
78121;BME280;67585;44.802;10.332;2023-07-29T06:10:40;100793.44;;;25.10;59.29
78121;BME280;67585;44.802;10.332;2023-07-29T06:13:06;100783.22;;;25.11;59.41
78121;BME280;67585;44.802;10.332;2023-07-29T06:15:31;100788.19;;;25.05;59.58
78121;BME280;67585;44.802;10.332;2023-07-29T06:17:57;100782.13;;;25.00;59.47
78121;BME280;67585;44.802;10.332;2023-07-29T06:20:22;100782.09;;;25.28;58.91
78121;BME280;67585;44.802;10.332;2023-07-29T06:22:48;100786.75;;;25.40;58.53
78121;BME280;67585;44.802;10.332;2023-07-29T06:25:13;100775.00;;;25.43;58.68
78121;BME280;67585;44.802;10.332;2023-07-29T06:27:39;100791.69;;;25.34;58.77
78121;BME280;67585;44.802;10.332;2023-07-29T06:30:05;100787.25;;;25.45;58.97
78121;BME280;67585;44.802;10.332;2023-07-29T06:32:31;100785.03;;;25.51;58.65
78121;BME280;67585;44.802;10.332;2023-07-29T06:34:57;100757.91;;;25.53;57.81
78121;BME280;67585;44.802;10.332;2023-07-29T06:37:22;100771.88;;;25.60;58.11
78121;BME280;67585;44.802;10.332;2023-07-29T06:39:48;100793.75;;;26.00;57.17
78121;BME280;67585;44.802;10.332;2023-07-29T06:42:14;100793.13;;;25.91;57.58
78121;BME280;67585;44.802;10.332;2023-07-29T06:44:48;100757.56;;;26.06;56.04
78121;BME280;67585;44.802;10.332;2023-07-29T06:47:14;100787.25;;;26.28;56.58
78121;BME280;67585;44.802;10.332;2023-07-29T06:49:42;100775.81;;;26.10;57.15
78121;BME280;67585;44.802;10.332;2023-07-29T06:52:08;100781.50;;;26.37;56.62
78121;BME280;67585;44.802;10.332;2023-07-29T06:54:33;100792.06;;;26.51;56.30
78121;BME280;67585;44.802;10.332;2023-07-29T06:56:59;100785.16;;;26.41;56.32
78121;BME280;67585;44.802;10.332;2023-07-29T06:59:25;100794.09;;;26.34;56.62
78121;BME280;67585;44.802;10.332;2023-07-29T07:01:54;100792.06;;;26.31;56.21
78121;BME280;67585;44.802;10.332;2023-07-29T07:04:19;100796.31;;;26.64;55.71
78121;BME280;67585;44.802;10.332;2023-07-29T07:06:45;100782.50;;;26.64;55.33
78121;BME280;67585;44.802;10.332;2023-07-29T07:09:10;100795.34;;;26.95;54.69
78121;BME280;67585;44.802;10.332;2023-07-29T07:11:36;100764.56;;;26.97;53.97
78121;BME280;67585;44.802;10.332;2023-07-29T07:14:01;100781.69;;;27.06;54.12
78121;BME280;67585;44.802;10.332;2023-07-29T07:16:27;100772.59;;;27.25;53.18
78121;BME280;67585;44.802;10.332;2023-07-29T07:18:55;100782.50;;;27.26;53.27
78121;BME280;67585;44.802;10.332;2023-07-29T07:21:21;100790.59;;;27.38;53.21
78121;BME280;67585;44.802;10.332;2023-07-29T07:23:46;100798.28;;;27.06;53.75
78121;BME280;67585;44.802;10.332;2023-07-29T07:26:11;100789.34;;;27.59;52.82
78121;BME280;67585;44.802;10.332;2023-07-29T07:28:37;100765.78;;;27.68;52.00
78121;BME280;67585;44.802;10.332;2023-07-29T07:31:02;100785.50;;;27.90;52.46
78121;BME280;67585;44.802;10.332;2023-07-29T07:33:27;100786.72;;;28.19;51.73
78121;BME280;67585;44.802;10.332;2023-07-29T07:35:53;100789.44;;;27.89;52.72
78121;BME280;67585;44.802;10.332;2023-07-29T07:38:18;100782.94;;;28.04;51.92
78121;BME280;67585;44.802;10.332;2023-07-29T07:40:52;100791.69;;;28.37;51.12
78121;BME280;67585;44.802;10.332;2023-07-29T07:43:19;100791.06;;;28.20;51.73
78121;BME280;67585;44.802;10.332;2023-07-29T07:45:44;100794.16;;;28.15;51.75
78121;BME280;67585;44.802;10.332;2023-07-29T07:48:10;100780.88;;;27.98;52.34
78121;BME280;67585;44.802;10.332;2023-07-29T07:50:37;100799.63;;;28.38;51.60
78121;BME280;67585;44.802;10.332;2023-07-29T07:53:02;100786.03;;;28.56;51.22
78121;BME280;67585;44.802;10.332;2023-07-29T07:55:27;100792.53;;;28.71;49.84
78121;BME280;67585;44.802;10.332;2023-07-29T07:57:53;100785.44;;;28.43;51.45
78121;BME280;67585;44.802;10.332;2023-07-29T08:00:18;100801.13;;;28.32;51.92
78121;BME280;67585;44.802;10.332;2023-07-29T08:02:44;100799.78;;;28.19;51.78
78121;BME280;67585;44.802;10.332;2023-07-29T08:05:10;100800.56;;;28.80;50.06
78121;BME280;67585;44.802;10.332;2023-07-29T08:07:35;100792.56;;;28.44;50.33
78121;BME280;67585;44.802;10.332;2023-07-29T08:10:01;100785.63;;;28.27;50.93
78121;BME280;67585;44.802;10.332;2023-07-29T08:12:26;100789.94;;;28.25;51.85
78121;BME280;67585;44.802;10.332;2023-07-29T08:14:51;100784.00;;;28.53;50.63
78121;BME280;67585;44.802;10.332;2023-07-29T08:17:17;100765.28;;;28.76;50.16
78121;BME280;67585;44.802;10.332;2023-07-29T08:19:42;100783.22;;;28.90;50.10
78121;BME280;67585;44.802;10.332;2023-07-29T08:22:07;100776.56;;;29.39;48.38
78121;BME280;67585;44.802;10.332;2023-07-29T08:24:33;100783.91;;;29.17;48.42
78121;BME280;67585;44.802;10.332;2023-07-29T08:26:59;100776.38;;;29.62;48.24
78121;BME280;67585;44.802;10.332;2023-07-29T08:29:24;100751.22;;;29.40;47.79
78121;BME280;67585;44.802;10.332;2023-07-29T08:31:50;100769.94;;;30.06;46.62
78121;BME280;67585;44.802;10.332;2023-07-29T08:34:16;100764.34;;;29.99;46.50
78121;BME280;67585;44.802;10.332;2023-07-29T08:36:42;100750.72;;;29.79;47.17
78121;BME280;67585;44.802;10.332;2023-07-29T08:39:07;100763.22;;;30.14;47.04
78121;BME280;67585;44.802;10.332;2023-07-29T08:41:37;100764.22;;;30.58;44.95
78121;BME280;67585;44.802;10.332;2023-07-29T08:44:18;100738.09;;;29.89;46.13
78121;BME280;67585;44.802;10.332;2023-07-29T08:46:46;100763.06;;;30.59;45.17
78121;BME280;67585;44.802;10.332;2023-07-29T08:49:12;100756.25;;;30.53;44.88
78121;BME280;67585;44.802;10.332;2023-07-29T08:51:44;100770.78;;;29.55;46.30
78121;BME280;67585;44.802;10.332;2023-07-29T08:54:11;100762.75;;;29.98;45.82
78121;BME280;67585;44.802;10.332;2023-07-29T08:56:36;100763.75;;;30.38;44.81
78121;BME280;67585;44.802;10.332;2023-07-29T08:59:02;100752.75;;;30.77;44.79
78121;BME280;67585;44.802;10.332;2023-07-29T09:01:29;100763.56;;;31.04;43.73
78121;BME280;67585;44.802;10.332;2023-07-29T09:03:56;100751.69;;;31.39;42.58
78121;BME280;67585;44.802;10.332;2023-07-29T09:06:21;100734.03;;;30.56;44.26
78121;BME280;67585;44.802;10.332;2023-07-29T09:08:49;100763.38;;;30.43;44.36
78121;BME280;67585;44.802;10.332;2023-07-29T09:11:16;100750.41;;;30.97;44.00
78121;BME280;67585;44.802;10.332;2023-07-29T09:13:42;100762.38;;;31.05;44.31
78121;BME280;67585;44.802;10.332;2023-07-29T09:16:08;100751.66;;;31.57;42.41
78121;BME280;67585;44.802;10.332;2023-07-29T09:18:34;100750.47;;;31.37;42.89
78121;BME280;67585;44.802;10.332;2023-07-29T09:21:00;100758.00;;;31.58;43.70
78121;BME280;67585;44.802;10.332;2023-07-29T09:23:28;100749.66;;;31.68;42.38
78121;BME280;67585;44.802;10.332;2023-07-29T09:26:01;100751.25;;;30.98;43.77
78121;BME280;67585;44.802;10.332;2023-07-29T09:28:33;100761.41;;;30.51;45.59
78121;BME280;67585;44.802;10.332;2023-07-29T09:30:59;100760.06;;;30.16;46.15
78121;BME280;67585;44.802;10.332;2023-07-29T09:33:28;100737.09;;;29.60;46.63
78121;BME280;67585;44.802;10.332;2023-07-29T09:35:54;100719.91;;;29.40;46.32
78121;BME280;67585;44.802;10.332;2023-07-29T09:38:28;100754.28;;;29.76;46.07
78121;BME280;67585;44.802;10.332;2023-07-29T09:40:55;100752.31;;;30.57;44.50
78121;BME280;67585;44.802;10.332;2023-07-29T09:43:25;100754.75;;;30.73;43.92
78121;BME280;67585;44.802;10.332;2023-07-29T09:45:51;100753.63;;;31.28;42.36
78121;BME280;67585;44.802;10.332;2023-07-29T09:48:22;100753.66;;;31.64;42.23
78121;BME280;67585;44.802;10.332;2023-07-29T09:50:47;100738.91;;;31.13;43.73
78121;BME280;67585;44.802;10.332;2023-07-29T09:53:14;100758.41;;;31.74;41.70
78121;BME280;67585;44.802;10.332;2023-07-29T09:55:39;100752.38;;;31.93;42.21
78121;BME280;67585;44.802;10.332;2023-07-29T09:58:04;100729.00;;;31.05;43.40
78121;BME280;67585;44.802;10.332;2023-07-29T10:00:33;100742.91;;;31.55;42.44
78121;BME280;67585;44.802;10.332;2023-07-29T10:03:00;100741.72;;;31.56;42.49
78121;BME280;67585;44.802;10.332;2023-07-29T10:05:27;100737.63;;;32.11;40.67
78121;BME280;67585;44.802;10.332;2023-07-29T10:07:53;100730.25;;;32.60;39.74
78121;BME280;67585;44.802;10.332;2023-07-29T10:10:19;100741.72;;;32.69;39.14
78121;BME280;67585;44.802;10.332;2023-07-29T10:12:45;100730.13;;;31.97;40.74
78121;BME280;67585;44.802;10.332;2023-07-29T10:15:11;100711.50;;;31.40;42.23
78121;BME280;67585;44.802;10.332;2023-07-29T10:17:38;100734.16;;;31.21;42.41
78121;BME280;67585;44.802;10.332;2023-07-29T10:20:06;100729.38;;;30.93;43.84
78121;BME280;67585;44.802;10.332;2023-07-29T10:22:40;100693.09;;;30.46;43.26
78121;BME280;67585;44.802;10.332;2023-07-29T10:25:18;100737.13;;;30.33;44.71
78121;BME280;67585;44.802;10.332;2023-07-29T10:27:53;100723.81;;;30.96;43.96
78121;BME280;67585;44.802;10.332;2023-07-29T10:30:21;100718.84;;;32.22;41.25
78121;BME280;67585;44.802;10.332;2023-07-29T10:32:48;100715.19;;;32.40;40.78
78121;BME280;67585;44.802;10.332;2023-07-29T10:35:15;100720.88;;;32.92;39.74
78121;BME280;67585;44.802;10.332;2023-07-29T10:37:41;100719.75;;;33.34;38.02
78121;BME280;67585;44.802;10.332;2023-07-29T10:40:09;100710.50;;;32.92;39.13
78121;BME280;67585;44.802;10.332;2023-07-29T10:42:35;100705.25;;;32.39;39.60
78121;BME280;67585;44.802;10.332;2023-07-29T10:45:17;100692.41;;;31.46;41.59
78121;BME280;67585;44.802;10.332;2023-07-29T10:47:43;100706.25;;;32.73;38.90
78121;BME280;67585;44.802;10.332;2023-07-29T10:50:20;100704.28;;;31.75;40.71
78121;BME280;67585;44.802;10.332;2023-07-29T10:52:50;100709.00;;;32.00;40.87
78121;BME280;67585;44.802;10.332;2023-07-29T10:55:32;100699.53;;;32.64;39.53
78121;BME280;67585;44.802;10.332;2023-07-29T10:58:15;100678.88;;;32.47;39.50
78121;BME280;67585;44.802;10.332;2023-07-29T11:00:44;100699.34;;;32.19;39.53
78121;BME280;67585;44.802;10.332;2023-07-29T11:03:12;100694.72;;;33.20;38.58
78121;BME280;67585;44.802;10.332;2023-07-29T11:05:52;100696.41;;;33.55;37.03
78121;BME280;67585;44.802;10.332;2023-07-29T11:08:21;100701.22;;;32.50;38.90
78121;BME280;67585;44.802;10.332;2023-07-29T11:11:01;100688.03;;;32.54;38.65
78121;BME280;67585;44.802;10.332;2023-07-29T11:13:28;100676.69;;;32.17;39.41
78121;BME280;67585;44.802;10.332;2023-07-29T11:15:54;100692.84;;;32.47;39.80
78121;BME280;67585;44.802;10.332;2023-07-29T11:18:20;100675.06;;;32.19;40.36
78121;BME280;67585;44.802;10.332;2023-07-29T11:20:46;100685.47;;;32.08;40.81
78121;BME280;67585;44.802;10.332;2023-07-29T11:23:13;100681.25;;;31.49;41.13
78121;BME280;67585;44.802;10.332;2023-07-29T11:25:38;100678.28;;;32.14;41.17
78121;BME280;67585;44.802;10.332;2023-07-29T11:28:04;100676.47;;;31.61;41.64
78121;BME280;67585;44.802;10.332;2023-07-29T11:30:30;100676.47;;;31.61;40.74
78121;BME280;67585;44.802;10.332;2023-07-29T11:32:57;100670.53;;;31.19;42.03
78121;BME280;67585;44.802;10.332;2023-07-29T11:35:23;100636.72;;;30.78;42.21
78121;BME280;67585;44.802;10.332;2023-07-29T11:37:51;100669.28;;;31.63;41.97
78121;BME280;67585;44.802;10.332;2023-07-29T11:40:18;100665.28;;;31.64;42.07
78121;BME280;67585;44.802;10.332;2023-07-29T11:42:45;100656.44;;;31.91;40.18
78121;BME280;67585;44.802;10.332;2023-07-29T11:45:11;100646.13;;;31.88;40.36
78121;BME280;67585;44.802;10.332;2023-07-29T11:47:37;100661.59;;;32.77;38.53
78121;BME280;67585;44.802;10.332;2023-07-29T11:50:07;100652.72;;;32.26;40.53
78121;BME280;67585;44.802;10.332;2023-07-29T11:52:35;100636.75;;;32.34;39.04
78121;BME280;67585;44.802;10.332;2023-07-29T11:55:01;100668.06;;;31.75;40.29
78121;BME280;67585;44.802;10.332;2023-07-29T11:57:29;100641.63;;;32.78;38.78
78121;BME280;67585;44.802;10.332;2023-07-29T11:59:55;100642.94;;;33.53;37.32
78121;BME280;67585;44.802;10.332;2023-07-29T12:02:22;100643.22;;;33.28;38.47
78121;BME280;67585;44.802;10.332;2023-07-29T12:04:49;100642.16;;;33.49;36.84
78121;BME280;67585;44.802;10.332;2023-07-29T12:07:16;100630.19;;;33.14;37.53
78121;BME280;67585;44.802;10.332;2023-07-29T12:09:43;100637.88;;;32.51;38.76
78121;BME280;67585;44.802;10.332;2023-07-29T12:12:08;100625.28;;;32.21;38.89
78121;BME280;67585;44.802;10.332;2023-07-29T12:14:34;100639.66;;;32.09;38.50
78121;BME280;67585;44.802;10.332;2023-07-29T12:17:02;100633.94;;;31.42;41.01
78121;BME280;67585;44.802;10.332;2023-07-29T12:19:38;100599.63;;;31.67;39.68
78121;BME280;67585;44.802;10.332;2023-07-29T12:22:05;100604.41;;;32.44;38.40
78121;BME280;67585;44.802;10.332;2023-07-29T12:24:32;100620.38;;;33.37;37.22
78121;BME280;67585;44.802;10.332;2023-07-29T12:26:58;100600.19;;;33.22;37.64
78121;BME280;67585;44.802;10.332;2023-07-29T12:29:24;100612.38;;;32.97;37.92
78121;BME280;67585;44.802;10.332;2023-07-29T12:31:57;100604.75;;;33.02;38.31
78121;BME280;67585;44.802;10.332;2023-07-29T12:34:25;100605.75;;;33.26;37.46
78121;BME280;67585;44.802;10.332;2023-07-29T12:36:51;100606.75;;;33.42;37.10
78121;BME280;67585;44.802;10.332;2023-07-29T12:41:46;100578.69;;;33.19;37.66
78121;BME280;67585;44.802;10.332;2023-07-29T12:44:12;100592.56;;;32.85;38.03
78121;BME280;67585;44.802;10.332;2023-07-29T12:46:38;100592.53;;;32.36;39.23